Weather observations for the past three days for
Moline Quad-City Airport
Imperial (Metric)
Date Time (cdt) Wind (mph) Vis. (mi.) Weather Sky Cond. Temperature (ºF) Relative Humidity Wind Chill (°F) Heat Index (°F) Pressure Precipitation (in)
Air Dwpt 6 hour altimeter (in) sea level (mb) 1 hr 3 hr 6 hr
Max. Min.
05 05:52 SW 3 10.00 Fair CLR 73.9 73 97% 29.9 1011.8
05 04:52 NE 3 10.00 Partly Cloudy SCT085 75.9 73.9 94% 75 29.9 1012.0
05 03:52 Calm 10.00 Fair CLR 75 73 94% 73 29.91 1012.2
05 02:52 Calm 10.00 Fair CLR 75 73.9 96% 73 29.91 1012.2
05 01:52 Calm 10.00 Fair CLR 75.9 73.9 94% 75 29.92 1012.4
05 00:52 S 3 10.00 Fair CLR 78.1 75 89.1 77 90% 81 29.92 1012.5
04 23:52 SE 3 10.00 Fair CLR 79 75 88% 83 29.92 1012.5
04 22:52 E 6 10.00 Fair CLR 81 75 82% 87 29.92 1012.7
04 21:52 SW 12 10.00 Fair CLR 82 75.9 82% 89 29.87 1011.0
04 19:52 S 3 10.00 Fair CLR 82 77 85% 90 29.9 1011.8
04 18:52 Calm 10.00 Fair CLR 88 77 96.1 88 70% 100 29.89 1011.5
04 17:52 SW 7 10.00 Fair CLR 91.9 75.9 60% 104 29.88 1011.2
04 16:52 S 12 10.00 Fair CLR 93.9 75 54% 106 29.88 1011.2
04 15:52 SW 8 10.00 Fair CLR 95 73.9 51% 106 29.89 1011.3
04 14:52 SW 6 10.00 Fair CLR 95 73 49% 105 29.91 1012.0
04 13:52 W 9 10.00 Fair CLR 95 73.9 51% 106 29.93 1012.9
04 12:52 W 7 10.00 Fair CLR 93 73 95 75 52% 102 29.94 1013.2
04 10:52 S 6 10.00 Fair CLR 88 75 66% 98 29.95 1013.5
04 09:52 SW 3 10.00 Fair CLR 84.9 73 68% 92 29.94 1013.4
04 08:52 W 8 10.00 Fair CLR 82.9 72 70% 88 29.93 1012.9
04 07:52 SW 7 10.00 Fair CLR 79 71.1 77% 82 29.91 1012.4
04 06:52 Calm 10.00 Fair CLR 75 70 79 75 84% 75 29.9 1011.8
04 05:52 Calm 10.00 Fair CLR 75.9 70 82% 77 29.9 1011.7
04 04:52 Calm 10.00 Fair CLR 75 71.1 88% 75 29.89 1011.6
04 03:52 Calm 10.00 Fair CLR 78.1 71.1 79% 80 29.88 1011.1
04 02:52 S 5 10.00 Fair CLR 78.1 72 82% 80 29.88 1011.2
04 01:52 Calm 10.00 Fair CLR 75.9 72 88% 76 29.89 1011.7
04 00:52 Calm 10.00 Fair CLR 77 73 88 77 88% 78 29.9 1012.1
03 23:52 Calm 10.00 Fair CLR 79 73.9 85% 83 29.9 1011.9
03 22:52 S 8 10.00 Fair CLR 80.1 75 85% 85 29.89 1011.7
03 21:52 S 6 10.00 Fair CLR 79 75.9 90% 83 29.89 1011.7
03 20:52 S 5 10.00 Fair CLR 79 75.9 90% 83 29.88 1011.2
03 19:52 S 5 10.00 Fair CLR 84 75.9 77% 93 29.86 1010.4
03 18:52 S 9 10.00 Fair CLR 88 77 95 88 70% 100 29.84 1010.0
03 17:52 S 7 10.00 Fair CLR 91 75.9 61% 103 29.86 1010.5
03 16:52 S 6 10.00 Fair CLR 93 75 56% 104 29.88 1011.1
03 15:52 S 6 10.00 A Few Clouds FEW110 93.9 73.9 52% 104 29.89 1011.5
03 14:52 S 7 10.00 Fair CLR 93.9 73 51% 103 29.9 1011.8
03 13:52 N 6 10.00 Fair CLR 93.9 71.1 48% 101 29.91 1012.0
03 12:52 Vrbl 6 10.00 Fair CLR 91.9 72 93 75.9 52% 100 29.92 1012.6
03 11:52 Calm 10.00 Fair CLR 91 73 56% 100 29.93 1013.0
03 10:52 W 6 10.00 Fair CLR 89.1 73 59% 97 29.94 1013.3
03 09:52 SW 7 10.00 Fair CLR 86 72 63% 92 29.92 1012.7
03 08:52 SW 6 10.00 Fair CLR 82.9 72 70% 88 29.92 1012.7
03 07:52 Calm 10.00 Partly Cloudy SCT120 79 71.1 77% 82 29.93 1012.8
03 06:52 Calm 10.00 Fair CLR 75.9 70 80.1 75 82% 77 29.92 1012.5
03 05:52 S 3 10.00 Fair CLR 77 70 79% 79 29.91 1012.2
03 04:52 Calm 10.00 Mostly Cloudy BKN110 78.1 70 76% 80 29.91 1012.1
03 03:52 Calm 10.00 Fair CLR 78.1 71.1 79% 80 29.9 1012.1
03 02:52 Calm 10.00 Fair CLR 78.1 72 82% 80 29.9 1011.9
03 01:52 S 7 10.00 Fair CLR 80.1 71.1 74% 84 29.9 1011.9
03 00:52 S 8 10.00 Fair CLR 80.1 72 88 80.1 76% 84 29.9 1012.0
02 23:52 S 5 10.00 Fair CLR 80.1 73 79% 84 29.9 1012.0
02 22:52 S 6 10.00 Fair CLR 81 73.9 79% 86 29.9 1011.9
02 21:52 S 7 10.00 Fair CLR 82.9 73.9 74% 89 29.89 1011.7
02 20:52 S 6 10.00 Fair CLR 82.9 75 77% 90 29.89 1011.5
02 19:52 S 6 10.00 Fair CLR 84 77 80% 94 29.88 1011.4
02 18:52 S 7 10.00 Fair CLR 88 77 95 88 70% 100 29.88 1011.3
02 17:52 S 9 10.00 Fair CLR 90 75 62% 100 29.88 1011.4
02 16:52 SW 9 10.00 Fair CLR 93 75 56% 104 29.89 1011.7
02 15:52 SW 14 10.00 Fair CLR 93.9 73.9 52% 104 29.9 1011.9
02 14:52 SW 12 10.00 Fair CLR 95 72 47% 103 29.91 1012.2
02 13:52 SW 14 10.00 Fair CLR 93.9 72 49% 102 29.92 1012.6
02 12:52 SW 12 10.00 Fair CLR 93.9 71.1 93.9 72 48% 101 29.93 1013.0
02 11:52 W 9 10.00 Fair CLR 91 73 56% 100 29.95 1013.6
02 10:52 S 6 10.00 Fair CLR 88 73.9 63% 97 29.95 1013.6
02 09:52 S 6 10.00 Fair CLR 84 71.1 65% 89 29.95 1013.7
02 08:52 W 5 10.00 A Few Clouds FEW100 81 71.1 72% 85 29.97 1014.2
02 07:52 Calm 10.00 Fair CLR 77 70 79% 79 29.95 1013.7
02 06:52 Calm 10.00 Fair CLR 73 68 79 70 84% 29.95 1013.5
Date Time (cdt) Wind (mph) Vis. (mi.) Weather Sky Cond. Air Dwpt Max. Min. Relative Humidity Wind Chill (°F) Heat Index (°F) altimeter (in) sea level (mb) 1 hr 3 hr 6 hr
6 hour
Temperature (ºF) Pressure Precipitation (in)